Los Alamos, NM

9:13 PM MDT on September 19, 2017 (GMT -0600)
Los Alamos

Weather History for KLAM - February, 2014

Change the Weather History Date:

Thursday, February 27, 2014

  Actual Average Record
Temperature  
Mean Temperature 44 °F -  
Max Temperature 55 °F 47 °F 68 °F (1986)
Min Temperature 34 °F 24 °F 9 °F (1971)
Degree Days  
Heating Degree Days 20    
Moisture  
Dew Point 19 °F    
Average Humidity 37    
Maximum Humidity 78    
Minimum Humidity 15    
Precipitation  
Precipitation 0.03 in - - ()
Sea Level Pressure  
Sea Level Pressure 29.89 in    
Wind  
Wind Speed 11 mph (WSW)    
Max Wind Speed 38 mph    
Max Gust Speed 50 mph    
Visibility 10 miles    
Events Rain    
Averages and records for this station are not official NWS values.
T = Trace of Precipitation, MM = Missing Value Source: NWS Daily Summary

Daily Weather History Graph

Daily Weather History Graph

Search for Another Location

Airport or City:

Trip Planner

Search our weather history database for the weather conditions in past years. The results will help you decide how hot, cold, wet, or windy it might be!

Date:

Astronomy

Feb. 27, 2014 Rise Set
Actual Time 6:37 AM MST 5:58 PM MST
Civil Twilight 6:11 AM MST 6:24 PM MST
Nautical Twilight 5:42 AM MST 6:53 PM MST
Astronomical Twilight 5:12 AM MST 7:23 PM MST
Moon 5:09 AM MST (2/27) 4:28 PM MST (2/27)
Length of Visible Light 12h 12m
Length of Day
11h 20m
Waning Crescent, 4% of the Moon is Illuminated
Feb 27
Waning Crescent
Mar 1
New
Mar 8
First Quarter
Mar 16
Full
Mar 23
Last Quarter

Hourly Weather History & Observations

Time (MST) Temp. Windchill Dew Point Humidity Pressure Visibility Wind Dir Wind Speed Gust Speed Precip Events Conditions
12:15 AM 46.9 °F - 0.3 °F 15% 30.02 in 10.0 mi South 3.5 mph - N/A   Clear
12:35 AM 45.7 °F 41.5 °F 2.3 °F 17% 30.02 in 10.0 mi West 8.1 mph - N/A   Clear
12:55 AM 43.2 °F 37.9 °F 4.1 °F 20% 30.02 in 10.0 mi WSW 9.2 mph - N/A   Clear
1:15 AM 43.5 °F 37.9 °F 5.5 °F 21% 30.02 in 10.0 mi West 10.4 mph - N/A   Mostly Cloudy
1:35 AM 45.5 °F 39.9 °F 4.8 °F 19% 30.01 in 10.0 mi West 11.5 mph - N/A   Mostly Cloudy
1:55 AM 45.5 °F 41.3 °F 4.5 °F 19% 30.01 in 10.0 mi WNW 8.1 mph - N/A   Mostly Cloudy
2:15 AM 45.1 °F 39.5 °F 4.5 °F 19% 30.00 in 10.0 mi West 11.5 mph - N/A   Mostly Cloudy
2:35 AM 45.5 °F 41.3 °F 4.1 °F 18% 29.99 in 10.0 mi West 8.1 mph - N/A   Scattered Clouds
2:55 AM 40.3 °F - 6.8 °F 25% 29.99 in 10.0 mi Calm Calm - N/A   Clear
3:15 AM 43.7 °F 39.7 °F 5.2 °F 20% 29.99 in 10.0 mi West 6.9 mph - N/A   Clear
3:35 AM 44.2 °F 38.8 °F 4.6 °F 20% 29.98 in 10.0 mi West 10.4 mph - N/A   Clear
3:55 AM 45.3 °F 38.7 °F 8.1 °F 22% 29.98 in 10.0 mi West 15.0 mph 20.7 mph N/A   Clear
4:15 AM 45.0 °F 38.9 °F 10.6 °F 25% 29.98 in 10.0 mi West 12.7 mph - N/A   Clear
4:35 AM 45.0 °F 40.1 °F 13.1 °F 28% 29.98 in 10.0 mi WNW 9.2 mph 21.9 mph N/A   Clear
4:55 AM 43.7 °F 36.9 °F 14.4 °F 31% 29.98 in 10.0 mi West 13.8 mph 18.4 mph N/A   Clear
5:15 AM 43.9 °F 36.5 °F 16.2 °F 33% 29.98 in 10.0 mi West 16.1 mph 21.9 mph N/A   Mostly Cloudy
5:35 AM 42.8 °F 34.3 °F 17.2 °F 36% 29.98 in 10.0 mi West 19.6 mph - N/A   Overcast
5:55 AM 42.8 °F 34.8 °F 19.0 °F 39% 29.97 in 10.0 mi West 17.3 mph 24.2 mph N/A   Overcast
6:15 AM 42.6 °F 39.0 °F 20.5 °F 41% 29.97 in 10.0 mi WNW 5.8 mph - N/A   Overcast
6:35 AM 37.6 °F 34.0 °F 16.2 °F 42% 29.97 in 10.0 mi ENE 4.6 mph - N/A   Overcast
6:55 AM 34.2 °F 31.2 °F 13.8 °F 43% 29.98 in 10.0 mi ENE 3.5 mph - N/A   Overcast
7:15 AM 34.7 °F 31.8 °F 12.9 °F 41% 29.97 in 10.0 mi NE 3.5 mph - N/A   Scattered Clouds
7:35 AM 35.2 °F - 13.3 °F 41% 29.98 in 10.0 mi Calm Calm - N/A   Clear
7:55 AM 37.6 °F - 12.9 °F 36% 29.98 in 10.0 mi Calm Calm - N/A   Scattered Clouds
8:15 AM 38.8 °F - 13.1 °F 35% 29.98 in 10.0 mi Calm Calm - N/A   Mostly Cloudy
8:35 AM 45.5 °F 39.9 °F 19.9 °F 36% 29.98 in 10.0 mi West 11.5 mph 18.4 mph N/A   Mostly Cloudy
8:55 AM 47.1 °F - 25.0 °F 42% 29.98 in 10.0 mi West 10.4 mph 21.9 mph N/A   Overcast
9:15 AM 47.8 °F - 24.8 °F 41% 29.98 in 10.0 mi WNW 9.2 mph - N/A   Mostly Cloudy
9:35 AM 48.2 °F - 25.0 °F 40% 29.98 in 10.0 mi WSW 3.5 mph - N/A   Scattered Clouds
9:55 AM 48.6 °F - 24.8 °F 39% 29.97 in 10.0 mi SW 5.8 mph - N/A   Mostly Cloudy
10:15 AM 48.6 °F - 24.4 °F 39% 29.96 in 10.0 mi West 5.8 mph - N/A   Overcast
10:35 AM 49.6 °F - 23.0 °F 35% 29.95 in 10.0 mi West 9.2 mph - N/A   Overcast
10:55 AM 49.6 °F - 21.7 °F 33% 29.94 in 10.0 mi WSW 11.5 mph - N/A   Overcast
11:15 AM 50.2 °F - 21.4 °F 32% 29.93 in 10.0 mi WSW 15.0 mph 21.9 mph N/A   Mostly Cloudy
11:35 AM 51.3 °F - 19.8 °F 29% 29.93 in 10.0 mi WSW 11.5 mph 19.6 mph N/A   Mostly Cloudy
11:55 AM 51.8 °F - 18.5 °F 27% 29.92 in 10.0 mi WSW 8.1 mph 15.0 mph N/A   Overcast
12:15 PM 51.6 °F - 16.7 °F 25% 29.91 in 10.0 mi WSW 11.5 mph 20.7 mph N/A   Overcast
12:35 PM 52.9 °F - 16.0 °F 23% 29.89 in 10.0 mi SW 8.1 mph 24.2 mph N/A   Overcast
12:55 PM 55.6 °F - 16.9 °F 22% 29.87 in 10.0 mi WSW 20.7 mph 27.6 mph N/A   Scattered Clouds
1:15 PM 55.9 °F - 18.3 °F 23% 29.86 in 10.0 mi West 20.7 mph 33.4 mph N/A   Scattered Clouds
1:35 PM 54.0 °F - 21.9 °F 29% 29.86 in 10.0 mi SW 23.0 mph 34.5 mph N/A   Scattered Clouds
1:55 PM 51.3 °F - 25.3 °F 37% 29.85 in 10.0 mi West 25.3 mph 34.5 mph N/A   Scattered Clouds
2:15 PM 50.7 °F - 27.3 °F 40% 29.83 in 10.0 mi West 16.1 mph 21.9 mph N/A   Clear
2:35 PM 52.2 °F - 25.2 °F 35% 29.81 in 10.0 mi WSW 10.4 mph 28.8 mph N/A   Clear
2:55 PM 53.8 °F - 21.4 °F 28% 29.80 in 10.0 mi WSW 18.4 mph 25.3 mph N/A   Clear
3:15 PM 53.6 °F - 19.2 °F 26% 29.80 in 10.0 mi SW 16.1 mph 24.2 mph N/A   Scattered Clouds
3:35 PM 51.6 °F - 21.7 °F 31% 29.80 in 10.0 mi SW 11.5 mph 21.9 mph N/A   Overcast
3:55 PM 51.8 °F - 21.6 °F 31% 29.77 in 10.0 mi South 4.6 mph - N/A   Overcast
4:15 PM 51.6 °F - 22.8 °F 32% 29.77 in 10.0 mi SSW 6.9 mph - N/A Rain Light Rain
4:35 PM 51.3 °F - 21.2 °F 31% 29.73 in 10.0 mi SW 9.2 mph 16.1 mph N/A   Overcast
4:55 PM 51.1 °F - 22.3 °F 32% 29.72 in 10.0 mi SSW 11.5 mph 19.6 mph N/A Rain Rain
5:15 PM 50.4 °F - 24.1 °F 36% 29.74 in 10.0 mi SSE 11.5 mph - N/A   Overcast
5:35 PM 49.1 °F - 26.4 °F 41% 29.74 in 10.0 mi West 11.5 mph 18.4 mph N/A Rain Light Rain
5:55 PM 45.7 °F 38.0 °F 31.8 °F 58% 29.75 in 10.0 mi West 19.6 mph 24.2 mph N/A   Light Drizzle
6:15 PM 42.3 °F 33.6 °F 30.7 °F 64% 29.76 in 7.0 mi WSW 19.6 mph 42.6 mph 0.01 in Rain Light Rain
6:35 PM 44.8 °F 36.4 °F 30.4 °F 57% 29.74 in 10.0 mi WSW 21.9 mph 29.9 mph 0.01 in   Mostly Cloudy
6:55 PM 44.4 °F 35.9 °F 29.8 °F 57% 29.74 in 10.0 mi SW 21.9 mph 33.4 mph 0.01 in   Drizzle
7:15 PM 40.3 °F 31.6 °F 34.0 °F 78% 29.81 in 4.0 mi WSW 17.3 mph 33.4 mph 0.01 in Rain Light Rain
7:35 PM 39.2 °F 29.6 °F 32.9 °F 78% 29.79 in 5.0 mi West 19.6 mph 29.9 mph 0.02 in Rain Light Rain
7:55 PM 40.5 °F 27.9 °F 31.1 °F 69% 29.79 in 10.0 mi West 38.0 mph 47.2 mph 0.02 in   Overcast
8:15 PM 41.2 °F 29.9 °F 27.0 °F 57% 29.78 in 10.0 mi West 31.1 mph 49.5 mph N/A   Mostly Cloudy
8:35 PM 41.0 °F 31.9 °F 26.1 °F 55% 29.80 in 10.0 mi West 19.6 mph 40.3 mph N/A   Scattered Clouds
8:50 PM 41.2 °F 32.4 °F 25.3 °F 53% 29.82 in 10.0 mi WNW 18.4 mph 32.2 mph N/A   Scattered Clouds
9:15 PM 41.4 °F 33.3 °F 23.2 °F 48% 29.82 in 10.0 mi West 16.1 mph 27.6 mph N/A   Mostly Cloudy
9:35 PM 41.4 °F 31.4 °F 21.7 °F 46% 29.83 in 10.0 mi West 24.2 mph 40.3 mph N/A   Mostly Cloudy
9:55 PM 41.9 °F 33.4 °F 20.5 °F 42% 29.83 in 10.0 mi West 18.4 mph 32.2 mph N/A   Mostly Cloudy
10:15 PM 41.4 °F 31.4 °F 19.9 °F 42% 29.83 in 10.0 mi West 24.2 mph 36.8 mph N/A   Scattered Clouds
10:35 PM 40.5 °F 29.7 °F 19.8 °F 44% 29.83 in 10.0 mi West 26.5 mph 47.2 mph N/A   Clear
10:55 PM 39.7 °F 28.1 °F 17.4 °F 41% 29.83 in 10.0 mi West 29.9 mph 49.5 mph N/A   Clear
11:15 PM 39.0 °F 27.6 °F 18.0 °F 43% 29.83 in 10.0 mi West 27.6 mph 43.7 mph N/A   Clear
11:35 PM 38.7 °F 27.3 °F 18.3 °F 44% 29.82 in 10.0 mi West 26.5 mph 39.1 mph N/A   Clear
11:55 PM 38.7 °F 27.8 °F 18.0 °F 43% 29.83 in 10.0 mi West 24.2 mph 47.2 mph N/A   Clear